Time;durP1;ratioP1;P1;durP2;ratioP2;P2;SDS_P1;SDS_P2;PMS_P1;PMS_P2;Temp;Humidity;BMP_temperature;BMP_pressure;BME280_temperature;BME280_humidity;BME280_pressure;Samples;Min_cycle;Max_cycle;Signal;HPM_P1;HPM_P2
2023/04/19 00:01:02;;;;;;;8.82;7.53;;;;;;;8.45;76.71;102856.84;6129462;23;20471;-85
2023/04/19 00:03:29;;;;;;;10.75;8.35;;;;;;;8.43;77.05;102847.72;6130098;23;20019;-85
2023/04/19 00:05:58;;;;;;;10.27;8.55;;;;;;;8.42;76.76;102857.59;6130163;23;20018;-84
2023/04/19 00:08:25;;;;;;;9.68;8.15;;;;;;;8.42;77.25;102846.22;6104165;23;20044;-84
2023/04/19 00:10:51;;;;;;;9.98;8.30;;;;;;;8.41;77.63;102844.69;6130200;23;20106;-85
2023/04/19 00:13:18;;;;;;;9.63;8.25;;;;;;;8.39;77.80;102850.41;6108439;23;20015;-85
2023/04/19 00:15:45;;;;;;;9.35;8.38;;;;;;;8.37;77.79;102847.34;6132153;23;20018;-85
2023/04/19 00:18:11;;;;;;;14.60;8.63;;;;;;;8.34;77.99;102846.19;6103683;23;20025;-85
2023/04/19 00:20:38;;;;;;;10.90;8.13;;;;;;;8.32;78.13;102847.69;6130475;23;20056;-84
2023/04/19 00:23:05;;;;;;;9.77;8.02;;;;;;;8.30;78.17;102850.69;6129514;23;20022;-84
2023/04/19 00:25:33;;;;;;;9.30;7.95;;;;;;;8.28;78.32;102852.97;6130197;23;20069;-85
2023/04/19 00:28:00;;;;;;;12.60;8.73;;;;;;;8.25;78.52;102845.75;6129342;23;20014;-85
2023/04/19 00:30:26;;;;;;;11.85;8.85;;;;;;;8.25;78.58;102847.63;6103727;23;20022;-85
2023/04/19 00:32:53;;;;;;;14.52;8.20;;;;;;;8.22;78.34;102843.84;6130445;23;20018;-84
2023/04/19 00:35:19;;;;;;;12.57;8.65;;;;;;;8.21;78.77;102844.19;6129686;23;20018;-84
2023/04/19 00:37:46;;;;;;;9.50;7.43;;;;;;;8.17;78.86;102846.06;6104645;23;20400;-85
2023/04/19 00:40:13;;;;;;;10.50;8.32;;;;;;;8.12;79.25;102844.53;6129471;23;20419;-85
2023/04/19 00:42:39;;;;;;;10.23;8.45;;;;;;;8.09;79.36;102839.22;6129696;23;20084;-84
2023/04/19 00:45:06;;;;;;;9.85;8.05;;;;;;;8.06;79.41;102837.28;6103587;23;20029;-84
2023/04/19 00:47:35;;;;;;;10.50;8.52;;;;;;;8.01;79.59;102835.75;6107863;23;20027;-84
2023/04/19 00:50:03;;;;;;;11.02;7.90;;;;;;;7.97;79.54;102827.81;6130003;23;20022;-84
2023/04/19 00:52:32;;;;;;;12.60;8.70;;;;;;;7.95;79.72;102827.41;6130350;23;20022;-84
2023/04/19 00:54:58;;;;;;;9.18;8.07;;;;;;;7.93;79.95;102826.25;6103384;23;20022;-84
2023/04/19 00:57:28;;;;;;;12.07;8.30;;;;;;;7.89;80.04;102830.78;6101619;23;20022;-84
2023/04/19 00:59:55;;;;;;;9.65;8.65;;;;;;;7.86;80.33;102828.84;6129959;23;20014;-84
2023/04/19 01:02:22;;;;;;;8.73;7.85;;;;;;;7.83;80.35;102826.94;6103611;23;20464;-84
2023/04/19 01:04:49;;;;;;;11.90;8.52;;;;;;;7.80;80.61;102828.44;6130200;23;20015;-84
2023/04/19 01:07:16;;;;;;;9.38;8.23;;;;;;;7.78;80.65;102824.63;6129555;23;20109;-84
2023/04/19 01:09:44;;;;;;;11.00;8.75;;;;;;;7.77;80.63;102823.13;6079704;23;20018;-84
2023/04/19 01:12:10;;;;;;;9.55;8.57;;;;;;;7.77;80.93;102823.13;6102829;23;20058;-83
2023/04/19 01:14:37;;;;;;;11.32;8.68;;;;;;;7.77;80.84;102823.88;6130050;23;20093;-84
2023/04/19 01:17:03;;;;;;;9.88;8.40;;;;;;;7.78;81.14;102821.97;6129815;23;20091;-84
2023/04/19 01:19:30;;;;;;;10.70;8.88;;;;;;;7.78;81.55;102819.34;6135038;23;20090;-83
2023/04/19 01:21:57;;;;;;;12.00;8.90;;;;;;;7.78;81.35;102820.09;6103754;23;20027;-84
2023/04/19 01:24:24;;;;;;;15.38;9.20;;;;;;;7.78;81.73;102824.63;6103763;23;20356;-84
2023/04/19 01:26:50;;;;;;;9.98;8.60;;;;;;;7.78;81.67;102821.97;6103090;23;20018;-85
2023/04/19 01:29:17;;;;;;;12.00;9.70;;;;;;;7.78;81.66;102824.63;6129351;23;20524;-84
2023/04/19 01:31:50;;;;;;;11.57;9.10;;;;;;;7.79;82.08;102813.66;6130047;23;20030;-84
2023/04/19 01:34:16;;;;;;;12.73;9.02;;;;;;;7.80;82.02;102815.19;6103581;23;20015;-84
2023/04/19 01:36:43;;;;;;;12.63;8.43;;;;;;;7.81;82.26;102824.66;6130123;23;20478;-84
2023/04/19 01:39:10;;;;;;;9.70;8.68;;;;;;;7.82;82.43;102814.81;6102801;23;20081;-84
2023/04/19 01:41:38;;;;;;;10.57;9.05;;;;;;;7.84;82.52;102815.97;6129266;23;20057;-84
2023/04/19 01:44:05;;;;;;;10.35;8.93;;;;;;;7.86;82.73;102815.59;6078990;23;20101;-84
2023/04/19 01:46:31;;;;;;;13.32;9.27;;;;;;;7.88;82.71;102814.09;6129855;23;20380;-84
2023/04/19 01:48:58;;;;;;;12.00;9.38;;;;;;;7.90;82.42;102813.72;6103529;23;20019;-85
2023/04/19 01:51:24;;;;;;;13.10;9.73;;;;;;;7.91;82.68;102809.94;6108683;23;20097;-84
2023/04/19 01:53:52;;;;;;;10.27;8.82;;;;;;;7.93;82.73;102816.41;6105068;23;20054;-84
2023/04/19 01:56:21;;;;;;;13.63;9.27;;;;;;;7.93;82.88;102813.75;6103810;23;20014;-85
2023/04/19 01:58:48;;;;;;;10.68;9.05;;;;;;;7.94;83.06;102812.63;6103284;23;20437;-84
2023/04/19 02:01:14;;;;;;;11.60;9.73;;;;;;;7.95;83.08;102816.78;6078726;23;20026;-84
2023/04/19 02:03:41;;;;;;;14.35;9.38;;;;;;;7.97;83.31;102819.06;6129843;23;20014;-84
2023/04/19 02:06:12;;;;;;;10.02;9.00;;;;;;;7.98;83.32;102817.94;6102812;23;20488;-84
2023/04/19 02:08:39;;;;;;;10.30;9.02;;;;;;;8.00;83.48;102810.34;6129608;23;20483;-84
2023/04/19 02:11:13;;;;;;;11.90;9.38;;;;;;;8.00;83.32;102818.31;6128432;23;20023;-85
2023/04/19 02:13:40;;;;;;;12.77;9.50;;;;;;;8.02;83.57;102819.47;6103650;23;20023;-86
2023/04/19 02:16:09;;;;;;;13.38;9.88;;;;;;;8.03;83.67;102817.56;6102963;23;20018;-85
2023/04/19 02:18:39;;;;;;;11.75;9.43;;;;;;;8.03;83.68;102818.34;6103359;23;20439;-84
2023/04/19 02:21:07;;;;;;;12.02;9.93;;;;;;;8.04;83.86;102811.91;6103266;23;20047;-85
2023/04/19 02:23:34;;;;;;;11.95;9.75;;;;;;;8.06;83.86;102814.19;6103930;23;20014;-84
2023/04/19 02:26:04;;;;;;;11.35;9.98;;;;;;;8.07;83.91;102807.75;6110378;23;20022;-85
2023/04/19 02:28:31;;;;;;;13.93;9.65;;;;;;;8.10;83.99;102814.19;6103669;23;20051;-85
2023/04/19 02:30:58;;;;;;;14.00;9.38;;;;;;;8.11;83.97;102819.13;6102848;23;20532;-84
2023/04/19 02:33:27;;;;;;;16.13;9.95;;;;;;;8.13;83.88;102819.53;6103114;23;20444;-85
2023/04/19 02:35:54;;;;;;;11.90;9.60;;;;;;;8.14;83.99;102815.75;6103371;23;20101;-84
2023/04/19 02:38:20;;;;;;;13.27;9.90;;;;;;;8.15;83.97;102817.25;6103149;23;20019;-84
2023/04/19 02:40:47;;;;;;;11.63;9.65;;;;;;;8.17;83.80;102819.53;6129447;23;20086;-85
2023/04/19 02:43:13;;;;;;;14.02;10.05;;;;;;;8.18;83.82;102829.78;6102375;23;20356;-84
2023/04/19 02:45:42;;;;;;;14.93;9.60;;;;;;;8.20;83.80;102830.19;6103138;23;20407;-84
2023/04/19 02:48:11;;;;;;;12.13;9.60;;;;;;;8.21;83.83;102821.09;6102171;23;20085;-85
2023/04/19 02:50:37;;;;;;;11.57;8.90;;;;;;;8.22;83.72;102827.16;6129162;23;20097;-84
2023/04/19 02:53:04;;;;;;;14.10;9.95;;;;;;;8.24;83.72;102823.00;6128835;23;20022;-85
2023/04/19 02:55:32;;;;;;;14.70;9.70;;;;;;;8.23;83.83;102816.16;6104664;23;20018;-86
2023/04/19 02:58:08;;;;;;;12.82;9.45;;;;;;;8.24;83.78;102817.69;6108240;23;20042;-85
2023/04/19 03:00:41;;;;;;;12.70;9.23;;;;;;;8.25;83.91;102818.44;6102900;23;20032;-85
2023/04/19 03:03:11;;;;;;;13.70;9.60;;;;;;;8.25;83.84;102815.78;6102064;23;20452;-85
2023/04/19 03:05:38;;;;;;;10.10;9.05;;;;;;;8.27;83.51;102819.59;6102894;23;20105;-85
2023/04/19 03:08:04;;;;;;;13.90;9.05;;;;;;;8.27;83.70;102814.28;6101820;23;20025;-85
2023/04/19 03:10:31;;;;;;;14.07;9.63;;;;;;;8.29;83.71;102808.63;6079238;23;20022;-85
2023/04/19 03:12:57;;;;;;;13.15;9.38;;;;;;;8.31;83.95;102814.31;6129091;23;20021;-85
2023/04/19 03:15:24;;;;;;;10.40;9.32;;;;;;;8.32;83.66;102816.63;6102555;23;20026;-85
2023/04/19 03:17:51;;;;;;;11.02;9.25;;;;;;;8.32;83.53;102813.97;6102915;23;20019;-85
2023/04/19 03:20:19;;;;;;;13.00;8.93;;;;;;;8.32;83.96;102813.19;6079245;23;20415;-86
2023/04/19 03:22:46;;;;;;;10.48;8.88;;;;;;;8.33;83.63;102812.84;6104158;23;20018;-85
2023/04/19 03:25:13;;;;;;;14.07;8.63;;;;;;;8.34;83.86;102817.00;6103767;23;20028;-85
2023/04/19 03:27:44;;;;;;;11.98;8.70;;;;;;;8.37;83.53;102809.44;6104410;23;20079;-85
2023/04/19 03:30:13;;;;;;;15.27;9.40;;;;;;;8.37;83.50;102804.13;6111616;23;20419;-85
2023/04/19 03:32:42;;;;;;;10.27;8.65;;;;;;;8.39;82.97;102812.47;6130572;23;20535;-85
2023/04/19 03:35:10;;;;;;;8.98;8.07;;;;;;;8.41;83.15;102810.19;6129998;23;20015;-85
2023/04/19 03:37:37;;;;;;;9.07;8.07;;;;;;;8.40;83.24;102800.72;6103855;23;20028;-85
2023/04/19 03:40:04;;;;;;;11.40;8.20;;;;;;;8.42;83.00;102806.41;6104006;23;20026;-85
2023/04/19 03:42:32;;;;;;;11.20;8.68;;;;;;;8.42;82.98;102799.19;6104537;23;20018;-85
2023/04/19 03:45:26;;;;;;;11.57;8.73;;;;;;;8.43;83.23;102802.59;6125595;23;20435;-85
2023/04/19 03:47:52;;;;;;;12.20;8.70;;;;;;;8.43;83.36;102799.94;6130586;23;20057;-84
2023/04/19 03:50:19;;;;;;;11.18;7.45;;;;;;;8.43;83.01;102807.91;6103441;23;20109;-84
2023/04/19 03:52:49;;;;;;;9.57;8.40;;;;;;;8.42;82.84;102804.50;6103658;23;20090;-84
2023/04/19 03:55:15;;;;;;;8.63;7.85;;;;;;;8.40;82.86;102808.69;6129686;23;20445;-84
2023/04/19 03:57:42;;;;;;;11.75;8.20;;;;;;;8.38;82.76;102803.00;6130011;23;20074;-83
2023/04/19 04:00:16;;;;;;;12.30;8.30;;;;;;;8.33;82.84;102804.88;6104100;23;20361;-84
2023/04/19 04:02:48;;;;;;;11.25;8.35;;;;;;;8.28;83.02;102794.59;6106757;23;20078;-84
2023/04/19 04:05:15;;;;;;;10.68;7.90;;;;;;;8.25;82.92;102799.88;6103528;23;20018;-84
2023/04/19 04:07:42;;;;;;;9.73;7.97;;;;;;;8.23;82.81;102797.59;6103417;23;20101;-84
2023/04/19 04:10:09;;;;;;;9.23;7.80;;;;;;;8.22;82.80;102806.69;6103351;23;20027;-84
2023/04/19 04:12:40;;;;;;;9.98;7.40;;;;;;;8.20;82.78;102795.69;6104483;23;20018;-83
2023/04/19 04:15:10;;;;;;;11.25;7.88;;;;;;;8.19;82.44;102798.72;6079783;23;20026;-84
2023/04/19 04:17:41;;;;;;;8.52;7.70;;;;;;;8.18;82.65;102802.50;6104029;23;20018;-84
2023/04/19 04:20:10;;;;;;;8.80;7.90;;;;;;;8.17;82.15;102798.31;6102773;23;20023;-84
2023/04/19 04:22:41;;;;;;;8.85;7.65;;;;;;;8.15;82.17;102801.34;6104036;23;20022;-84
2023/04/19 04:25:09;;;;;;;10.10;7.80;;;;;;;8.12;82.34;102802.09;6129664;23;20043;-84
2023/04/19 04:27:38;;;;;;;8.63;7.63;;;;;;;8.10;82.64;102800.94;6104077;23;20018;-84
2023/04/19 04:30:10;;;;;;;10.25;8.15;;;;;;;8.07;82.34;102809.63;6103003;23;20069;-84
2023/04/19 04:32:39;;;;;;;11.30;7.50;;;;;;;8.04;82.19;102806.59;6105316;23;20424;-84
2023/04/19 04:35:08;;;;;;;11.55;7.93;;;;;;;8.02;82.28;102806.19;6106798;23;20023;-84
2023/04/19 04:37:41;;;;;;;11.98;7.75;;;;;;;8.00;82.07;102810.34;6104718;23;20025;-84
2023/04/19 04:40:08;;;;;;;9.73;8.18;;;;;;;7.96;82.39;102810.38;6129035;23;20082;-84
2023/04/19 04:42:36;;;;;;;10.88;8.02;;;;;;;7.94;82.15;102801.25;6130129;23;20484;-84
2023/04/19 04:45:03;;;;;;;12.02;8.55;;;;;;;7.92;81.88;102806.94;6079636;23;20029;-84
2023/04/19 04:47:32;;;;;;;10.13;7.78;;;;;;;7.91;82.01;102805.41;6103917;23;20049;-84
2023/04/19 04:50:03;;;;;;;8.77;7.82;;;;;;;7.89;81.77;102806.91;6103281;23;20476;-85
2023/04/19 04:52:29;;;;;;;10.65;8.10;;;;;;;7.89;81.67;102807.66;6130368;23;20022;-84
2023/04/19 04:55:07;;;;;;;9.15;7.47;;;;;;;7.86;81.70;102800.44;6103335;23;20460;-83
2023/04/19 04:57:39;;;;;;;9.07;6.75;;;;;;;7.86;81.43;102805.75;6129742;23;20018;-83
2023/04/19 05:00:10;;;;;;;10.73;7.20;;;;;;;7.86;81.40;102799.69;6103031;23;20026;-84
2023/04/19 05:02:44;;;;;;;10.02;7.70;;;;;;;7.85;81.33;102814.84;6104190;23;20090;-83
2023/04/19 05:05:11;;;;;;;9.40;7.60;;;;;;;7.85;81.20;102811.44;6104942;23;20014;-84
2023/04/19 05:07:37;;;;;;;10.27;7.15;;;;;;;7.85;81.11;102806.13;6107524;23;20050;-84
2023/04/19 05:10:06;;;;;;;8.93;7.35;;;;;;;7.84;80.89;102815.22;6103142;23;20026;-84
2023/04/19 05:12:41;;;;;;;10.82;7.82;;;;;;;7.84;80.79;102821.28;6104053;23;20329;-85
2023/04/19 05:15:08;;;;;;;9.57;7.05;;;;;;;7.86;80.72;102824.31;6103173;23;20118;-84
2023/04/19 05:17:36;;;;;;;21.52;7.55;;;;;;;7.86;80.36;102811.06;6080341;23;20907;-85
2023/04/19 05:20:04;;;;;;;8.38;7.13;;;;;;;7.86;80.12;102813.72;6102906;23;20372;-84
2023/04/19 05:22:31;;;;;;;10.30;6.97;;;;;;;7.86;79.79;102819.00;6079683;23;20019;-84
2023/04/19 05:24:58;;;;;;;11.57;7.55;;;;;;;7.87;79.47;102815.22;6103569;23;20479;-85
2023/04/19 05:27:25;;;;;;;8.60;7.13;;;;;;;7.88;79.06;102818.66;6103264;23;20018;-84
2023/04/19 05:29:52;;;;;;;9.70;6.82;;;;;;;7.89;78.40;102822.81;6129995;23;20405;-84
2023/04/19 05:32:20;;;;;;;10.45;6.93;;;;;;;7.93;78.04;102819.06;6102935;23;20033;-84
2023/04/19 05:34:52;;;;;;;9.57;7.38;;;;;;;8.65;76.89;102812.94;6081100;23;20079;-85
2023/04/19 05:37:22;;;;;;;8.10;6.70;;;;;;;9.56;72.89;102823.25;6107339;23;20022;-85
2023/04/19 05:39:49;;;;;;;9.68;7.30;;;;;;;9.79;71.14;102818.28;6110654;23;20025;-85
2023/04/19 05:42:17;;;;;;;9.40;7.07;;;;;;;9.66;69.58;102825.13;6102537;23;20014;-84
2023/04/19 05:44:43;;;;;;;8.07;6.55;;;;;;;9.33;69.45;102824.41;6130090;23;20077;-85
2023/04/19 05:47:11;;;;;;;7.30;6.60;;;;;;;9.22;69.90;102825.53;6078572;23;20026;-85
2023/04/19 05:50:10;;;;;;;8.93;6.82;;;;;;;9.14;69.74;102832.00;6103182;23;20023;-85
2023/04/19 05:52:43;;;;;;;12.25;7.38;;;;;;;9.08;69.48;102814.91;6081263;23;20101;-85
2023/04/19 05:55:09;;;;;;;9.10;6.70;;;;;;;9.17;68.71;102828.59;6079222;23;20025;-85
2023/04/19 05:57:40;;;;;;;8.45;6.90;;;;;;;9.30;67.78;102821.72;6103570;23;20053;-85
2023/04/19 06:00:08;;;;;;;7.57;6.47;;;;;;;9.38;67.23;102825.16;6103727;23;20023;-84
2023/04/19 06:02:49;;;;;;;7.35;6.60;;;;;;;9.42;67.02;102828.56;6101370;23;20018;-84
2023/04/19 06:05:16;;;;;;;7.20;6.35;;;;;;;9.78;65.49;102826.63;6101547;23;20022;-84
2023/04/19 06:07:42;;;;;;;10.15;6.78;;;;;;;9.53;64.76;102822.13;6101904;23;20050;-82
2023/04/19 06:10:22;;;;;;;8.45;6.53;;;;;;;9.51;64.83;102826.28;6102917;23;20027;-84
2023/04/19 06:12:48;;;;;;;7.15;6.38;;;;;;;9.94;63.12;102833.06;6082061;23;20027;-85
2023/04/19 06:15:15;;;;;;;8.35;6.47;;;;;;;10.12;62.27;102833.00;6130386;23;20766;-85
2023/04/19 06:17:43;;;;;;;7.60;6.85;;;;;;;10.22;61.20;102826.16;6103336;23;20101;-83
2023/04/19 06:20:11;;;;;;;11.10;6.45;;;;;;;10.18;60.45;102838.69;6104332;23;20054;-82
2023/04/19 06:22:43;;;;;;;7.88;6.32;;;;;;;10.13;60.60;102836.41;6079852;23;20022;-81
2023/04/19 06:25:10;;;;;;;8.98;6.68;;;;;;;10.69;59.32;102835.47;6103568;23;20027;-85
2023/04/19 06:27:36;;;;;;;12.77;5.88;;;;;;;11.07;58.73;102835.59;6104139;23;20022;-81
2023/04/19 06:30:03;;;;;;;6.65;6.03;;;;;;;11.21;56.63;102835.47;6103466;23;20027;-82
2023/04/19 06:32:30;;;;;;;5.45;5.03;;;;;;;11.11;56.56;102834.41;6129493;23;20029;-81
2023/04/19 06:34:56;;;;;;;11.02;7.15;;;;;;;11.13;55.77;102837.47;6103621;23;20437;-82
2023/04/19 06:37:23;;;;;;;7.90;5.45;;;;;;;11.09;54.83;102841.28;6079785;23;20103;-81
2023/04/19 06:39:49;;;;;;;8.32;5.38;;;;;;;11.14;54.13;102838.97;6104040;23;20167;-83
2023/04/19 06:42:18;;;;;;;7.43;5.03;;;;;;;11.03;53.31;102843.63;6103987;23;20022;-80
2023/04/19 06:44:45;;;;;;;8.50;5.38;;;;;;;11.02;53.55;102836.75;6104643;23;20022;-80
2023/04/19 06:47:11;;;;;;;6.60;5.20;;;;;;;11.03;52.71;102832.94;6102767;23;20023;-83
2023/04/19 06:49:38;;;;;;;10.80;5.40;;;;;;;11.03;52.63;102844.38;6129853;23;20029;-80
2023/04/19 06:52:04;;;;;;;5.90;5.30;;;;;;;11.03;51.62;102846.28;6103443;23;20094;-80
2023/04/19 06:54:31;;;;;;;7.38;5.10;;;;;;;11.07;51.35;102838.25;6130966;23;20449;-81
2023/04/19 06:56:58;;;;;;;5.55;5.00;;;;;;;11.13;51.20;102842.03;6104183;23;20117;-80
2023/04/19 06:59:27;;;;;;;7.90;5.03;;;;;;;11.16;51.49;102835.91;6104445;23;20033;-81
2023/04/19 07:01:53;;;;;;;7.53;4.57;;;;;;;11.27;51.24;102840.00;6131272;23;20014;-81
2023/04/19 07:04:20;;;;;;;6.47;5.25;;;;;;;11.28;50.37;102838.09;6104375;23;20018;-81
2023/04/19 07:06:48;;;;;;;4.80;4.43;;;;;;;11.32;50.31;102841.50;6104995;23;20018;-79
2023/04/19 07:09:14;;;;;;;8.00;4.72;;;;;;;11.46;50.46;102840.63;6130764;23;20023;-84
2023/04/19 07:11:41;;;;;;;5.00;4.60;;;;;;;11.55;49.69;102852.34;6080490;23;20022;-82
2023/04/19 07:14:07;;;;;;;6.85;4.75;;;;;;;11.57;48.99;102843.97;6130294;23;20126;-83
2023/04/19 07:16:34;;;;;;;8.05;4.50;;;;;;;11.65;48.96;102840.03;6130899;23;20018;-81
2023/04/19 07:19:00;;;;;;;4.53;4.13;;;;;;;11.73;48.44;102838.06;6104319;23;20027;-81
2023/04/19 07:21:31;;;;;;;7.85;4.30;;;;;;;11.82;47.55;102836.50;6080892;23;20026;-81
2023/04/19 07:23:58;;;;;;;4.80;4.40;;;;;;;11.92;47.21;102834.88;6104902;23;20398;-81
2023/04/19 07:26:25;;;;;;;5.85;4.40;;;;;;;11.91;46.68;102842.13;6105113;23;20491;-81
2023/04/19 07:28:51;;;;;;;5.63;3.90;;;;;;;11.91;45.81;102834.09;6104611;23;20023;-83
2023/04/19 07:31:18;;;;;;;5.30;3.95;;;;;;;11.90;46.95;102837.19;6130548;23;20015;-83
2023/04/19 07:33:45;;;;;;;4.57;3.97;;;;;;;11.96;46.75;102839.00;6104722;23;20018;-84
2023/04/19 07:36:11;;;;;;;4.15;3.67;;;;;;;11.98;45.49;102841.28;6130571;23;20019;-81
2023/04/19 07:38:38;;;;;;;4.78;4.07;;;;;;;11.98;45.36;102841.28;6130980;23;20467;-82
2023/04/19 07:41:04;;;;;;;7.63;3.70;;;;;;;12.01;45.05;102840.47;6130119;23;20015;-83
2023/04/19 07:43:31;;;;;;;7.60;4.07;;;;;;;12.00;45.66;102845.03;6130447;23;20014;-82
2023/04/19 07:45:57;;;;;;;5.57;4.00;;;;;;;12.05;45.33;102838.50;6130732;23;20011;-82
2023/04/19 07:48:24;;;;;;;5.22;3.45;;;;;;;12.23;45.61;102830.31;6130852;23;20109;-83
2023/04/19 07:50:51;;;;;;;4.30;3.90;;;;;;;12.43;45.54;102839.19;6131525;23;20021;-83
2023/04/19 07:53:17;;;;;;;4.93;3.50;;;;;;;12.47;44.31;102845.25;6130164;23;20056;-83
2023/04/19 07:55:44;;;;;;;8.45;3.55;;;;;;;12.53;44.66;102835.66;6130653;23;20021;-82
2023/04/19 07:58:11;;;;;;;3.30;3.10;;;;;;;12.67;44.26;102845.41;6129515;23;20444;-82
2023/04/19 08:00:37;;;;;;;5.85;3.70;;;;;;;12.67;44.56;102834.69;6129300;23;20019;-84
2023/04/19 08:03:04;;;;;;;3.30;3.10;;;;;;;12.61;43.84;102837.06;6130414;23;20010;-82
2023/04/19 08:05:31;;;;;;;3.95;3.63;;;;;;;12.62;43.43;102853.84;6130010;23;20058;-83
2023/04/19 08:07:58;;;;;;;4.32;3.78;;;;;;;12.54;43.51;102847.09;6130009;23;20023;-82
2023/04/19 08:10:27;;;;;;;6.80;3.33;;;;;;;12.69;43.67;102843.84;6105163;23;20120;-83
2023/04/19 08:12:54;;;;;;;3.92;3.63;;;;;;;12.80;43.35;102842.91;6129835;23;20053;-83
2023/04/19 08:15:33;;;;;;;4.78;3.78;;;;;;;12.90;42.72;102840.09;6130807;23;20018;-83
2023/04/19 08:18:03;;;;;;;3.45;3.00;;;;;;;12.96;41.65;102843.81;6105140;23;20709;-84
2023/04/19 08:20:31;;;;;;;5.43;3.17;;;;;;;13.07;41.95;102843.66;6130694;23;20518;-86
2023/04/19 08:22:58;;;;;;;4.03;3.72;;;;;;;13.19;40.65;102845.03;6132012;23;20014;-84
2023/04/19 08:25:36;;;;;;;4.13;3.72;;;;;;;13.32;41.34;102844.03;6130737;23;20014;-85
2023/04/19 08:28:03;;;;;;;3.58;3.10;;;;;;;13.55;41.38;102843.28;6129388;23;20018;-83
2023/04/19 08:30:30;;;;;;;3.70;3.17;;;;;;;13.59;40.29;102835.19;6130480;23;20018;-84
2023/04/19 08:32:56;;;;;;;5.63;2.75;;;;;;;13.53;40.36;102842.19;6130086;23;20520;-81
2023/04/19 08:35:24;;;;;;;3.28;2.97;;;;;;;13.51;40.53;102839.91;6130450;23;20014;-82
2023/04/19 08:37:50;;;;;;;3.33;2.88;;;;;;;13.64;40.23;102842.72;6130480;23;20631;-82
2023/04/19 08:40:17;;;;;;;5.32;2.70;;;;;;;13.65;40.16;102836.97;6130311;23;20444;-81
2023/04/19 08:42:43;;;;;;;4.85;2.70;;;;;;;13.74;39.81;102835.69;6129711;23;20070;-82
2023/04/19 08:45:12;;;;;;;6.07;2.72;;;;;;;13.83;40.36;102828.63;6129947;23;20019;-81
2023/04/19 08:47:57;;;;;;;3.03;2.60;;;;;;;13.90;40.76;102827.75;6108007;23;20018;-81
2023/04/19 08:50:28;;;;;;;3.45;2.67;;;;;;;13.96;39.74;102831.44;6130621;23;20070;-82
2023/04/19 08:53:08;;;;;;;2.95;2.70;;;;;;;13.90;40.95;102831.16;6130036;23;20078;-82
2023/04/19 08:55:53;;;;;;;2.58;2.30;;;;;;;14.14;39.12;102831.84;6130961;23;20045;-83
2023/04/19 08:58:22;;;;;;;2.63;2.30;;;;;;;14.27;38.83;102835.41;6130114;23;20045;-82
2023/04/19 09:01:09;;;;;;;5.32;2.20;;;;;;;14.20;39.04;102824.84;6130262;23;20018;-91
2023/04/19 09:03:51;;;;;;;3.65;2.10;;;;;;;14.32;38.25;102824.22;6104335;23;20035;-80
2023/04/19 09:06:36;;;;;;;2.10;2.00;;;;;;;14.30;37.59;102841.88;6104118;23;20026;-81
2023/04/19 09:09:14;;;;;;;2.22;2.03;;;;;;;14.18;38.48;102832.53;6129965;23;20061;-81
2023/04/19 09:11:59;;;;;;;15.63;2.00;;;;;;;14.15;37.28;102821.88;6128819;23;20018;-81
2023/04/19 09:14:27;;;;;;;1.90;1.80;;;;;;;14.20;37.14;102824.06;6103916;23;20046;-79
2023/04/19 09:17:10;;;;;;;2.97;1.63;;;;;;;14.38;37.74;102816.44;6129347;23;20397;-80
2023/04/19 09:19:48;;;;;;;1.65;1.55;;;;;;;14.43;36.80;102821.31;6104054;23;20113;-81
2023/04/19 09:22:15;;;;;;;1.70;1.60;;;;;;;14.54;36.28;102824.53;6129933;23;20437;-80
2023/04/19 09:24:42;;;;;;;2.45;2.25;;;;;;;14.64;35.64;102822.78;6129663;23;20054;-81
2023/04/19 09:27:12;;;;;;;1.85;1.75;;;;;;;14.68;35.29;102818.09;6129640;23;20066;-82
2023/04/19 09:29:38;;;;;;;2.00;1.90;;;;;;;14.76;35.56;102807.97;6130596;23;20042;-82
2023/04/19 09:32:05;;;;;;;2.17;2.00;;;;;;;14.77;35.24;102817.53;6129716;23;20110;-83
2023/04/19 09:34:31;;;;;;;2.75;1.77;;;;;;;14.65;36.94;102816.25;6130138;23;20014;-82
2023/04/19 09:37:11;;;;;;;2.25;1.70;;;;;;;14.82;36.98;102808.94;6129835;23;20014;-81
2023/04/19 09:39:53;;;;;;;1.92;1.83;;;;;;;14.72;35.94;102815.34;6130793;23;20419;-90
2023/04/19 09:42:20;;;;;;;2.13;1.80;;;;;;;14.65;35.92;102805.53;6130639;23;20018;-85
2023/04/19 09:45:07;;;;;;;6.05;1.75;;;;;;;14.82;36.27;102806.28;6128747;23;20330;-86
2023/04/19 09:47:37;;;;;;;3.78;1.75;;;;;;;14.94;36.45;102806.38;6103872;23;20058;-86
2023/04/19 09:50:12;;;;;;;2.00;1.85;;;;;;;14.96;36.76;102806.69;6103398;23;20825;-83
2023/04/19 09:52:43;;;;;;;4.72;2.00;;;;;;;15.06;36.75;102807.63;6104880;23;20019;-87
2023/04/19 09:55:10;;;;;;;2.88;2.10;;;;;;;15.18;36.34;102806.94;6104077;23;20015;-83
2023/04/19 09:57:52;;;;;;;2.13;2.03;;;;;;;15.00;35.59;102812.72;6129633;23;20018;-88
2023/04/19 10:00:20;;;;;;;4.20;2.03;;;;;;;15.04;35.57;102799.25;6130402;23;20027;-88
2023/04/19 10:02:54;;;;;;;2.30;2.10;;;;;;;15.19;35.76;102805.78;6143657;23;19995;-83
2023/04/19 10:05:22;;;;;;;2.25;2.10;;;;;;;15.11;35.69;102809.81;6111947;23;20015;-85
2023/04/19 10:07:51;;;;;;;1.90;1.80;;;;;;;15.21;35.37;102813.38;6130752;23;20022;-84
2023/04/19 10:10:23;;;;;;;7.57;5.68;;;;;;;15.27;34.68;102809.00;6130546;23;20013;-83
2023/04/19 10:13:10;;;;;;;3.33;3.03;;;;;;;15.34;35.57;102795.41;6103698;23;20023;-84
2023/04/19 10:15:47;;;;;;;2.00;1.85;;;;;;;15.51;34.87;102799.56;6130316;23;20069;-88
2023/04/19 10:18:25;;;;;;;2.13;2.03;;;;;;;15.47;34.56;102784.75;6131345;23;20385;-85
2023/04/19 10:20:57;;;;;;;2.40;2.20;;;;;;;15.63;34.76;102790.81;6130389;23;20019;-87
2023/04/19 10:23:23;;;;;;;;;;;;;;;15.76;38.35;102806.22;6130392;23;20426;-84
2023/04/19 10:25:56;;;;;;;3.13;1.80;;;;;;;15.58;34.21;102801.34;6104186;23;19921;-85
2023/04/19 10:28:23;;;;;;;1.80;1.70;;;;;;;15.42;34.20;102790.63;6130334;23;20045;-83
2023/04/19 10:31:04;;;;;;;1.88;1.77;;;;;;;15.65;35.45;102790.41;6130788;23;20025;-83
2023/04/19 10:33:35;;;;;;;2.83;2.00;;;;;;;15.65;33.64;102783.09;6131410;23;20019;-84
2023/04/19 10:36:02;;;;;;;2.95;1.90;;;;;;;15.70;33.90;102778.38;6141076;23;20041;-84
2023/04/19 10:38:41;;;;;;;2.00;1.90;;;;;;;15.78;34.96;102777.03;6131548;23;20093;-85
2023/04/19 10:41:13;;;;;;;2.88;1.92;;;;;;;15.66;33.83;102787.28;6131295;23;20077;-82
2023/04/19 10:43:56;;;;;;;1.90;1.80;;;;;;;15.72;33.63;102774.09;6104737;23;20085;-82
2023/04/19 10:46:24;;;;;;;2.05;1.80;;;;;;;15.66;34.04;102776.56;6130940;23;20409;-82
2023/04/19 10:48:59;;;;;;;2.15;2.05;;;;;;;15.55;34.00;102775.34;6104934;23;20102;-82
2023/04/19 10:51:27;;;;;;;7.22;1.80;;;;;;;15.51;32.91;102778.09;6130223;23;20453;-82
2023/04/19 10:54:00;;;;;;;4.07;2.10;;;;;;;15.43;34.01;102779.47;6130623;23;20022;-83
2023/04/19 10:56:36;;;;;;;2.45;2.25;;;;;;;15.46;33.98;102780.56;6131074;23;20019;-81
2023/04/19 10:59:06;;;;;;;1.75;1.65;;;;;;;15.34;34.17;102768.59;6130314;23;20464;-82
2023/04/19 11:01:39;;;;;;;2.08;1.98;;;;;;;15.55;34.89;102765.34;6104506;23;20078;-83
2023/04/19 11:04:07;;;;;;;2.05;1.77;;;;;;;15.53;33.09;102762.34;6130261;23;20464;-82
2023/04/19 11:06:35;;;;;;;2.10;2.00;;;;;;;15.57;32.42;102768.38;6130322;23;20019;-83
2023/04/19 11:09:05;;;;;;;2.33;2.05;;;;;;;15.55;32.78;102748.50;6131056;23;20082;-82
2023/04/19 11:11:34;;;;;;;2.63;2.15;;;;;;;15.60;32.40;102764.06;6131054;23;20082;-82
2023/04/19 11:14:03;;;;;;;2.42;2.20;;;;;;;15.31;33.15;102754.09;6130397;23;20590;-83
2023/04/19 11:16:29;;;;;;;7.55;2.38;;;;;;;15.43;32.82;102743.81;6130908;23;20038;-83
2023/04/19 11:19:19;;;;;;;2.67;2.30;;;;;;;15.58;32.69;102740.38;6104187;23;20053;-82
2023/04/19 11:21:47;;;;;;;2.10;2.00;;;;;;;15.50;31.54;102738.28;6130201;23;20417;-82
2023/04/19 11:24:17;;;;;;;3.35;1.90;;;;;;;15.68;32.83;102736.63;6130311;23;20019;-81
2023/04/19 11:26:47;;;;;;;1.95;1.85;;;;;;;15.71;32.39;102739.63;6130883;23;20020;-83
2023/04/19 11:29:14;;;;;;;2.13;2.00;;;;;;;15.55;31.56;102730.44;6130608;23;20019;-81
2023/04/19 11:31:45;;;;;;;2.33;2.22;;;;;;;15.58;31.99;102726.19;6130650;23;20098;-82
2023/04/19 11:34:12;;;;;;;2.58;2.28;;;;;;;15.55;31.78;102725.09;6129988;23;20042;-80
2023/04/19 11:36:51;;;;;;;4.07;2.30;;;;;;;15.47;32.16;102726.44;6130117;23;20469;-81